Time;durP1;ratioP1;P1;durP2;ratioP2;P2;SDS_P1;SDS_P2;PMS_P1;PMS_P2;Temp;Humidity;BMP_temperature;BMP_pressure;BME280_temperature;BME280_humidity;BME280_pressure;Samples;Min_cycle;Max_cycle;Signal;HPM_P1;HPM_P2
2023/12/30 00:01:47;;;;;;;299.47;45.63;;;;;;;;;;4968412;28;20588;-52
2023/12/30 00:04:13;;;;;;;229.40;32.83;;;;;;;;;;4965345;28;20213;-51
2023/12/30 00:06:39;;;;;;;229.23;32.93;;;;;;;;;;4972090;28;20693;-52
2023/12/30 00:09:05;;;;;;;279.00;42.10;;;;;;;;;;4966762;28;20209;-51
2023/12/30 00:11:31;;;;;;;190.80;27.23;;;;;;;;;;4972020;28;20259;-52
2023/12/30 00:13:57;;;;;;;298.83;43.90;;;;;;;;;;4967861;28;20229;-52
2023/12/30 00:16:23;;;;;;;252.97;37.53;;;;;;;;;;4971313;28;20225;-51
2023/12/30 00:18:49;;;;;;;298.60;42.63;;;;;;;;;;4963393;28;20656;-51
2023/12/30 00:21:19;;;;;;;260.13;37.13;;;;;;;;;;4962892;28;21362;-51
2023/12/30 00:23:45;;;;;;;261.77;37.40;;;;;;;;;;4970492;28;20585;-52
2023/12/30 00:26:24;;;;;;;211.10;29.93;;;;;;;;;;4976175;28;20347;-51
2023/12/30 00:32:02;;;;;;;260.00;36.83;;;;;;;;;;4978441;28;20228;-52
2023/12/30 00:34:28;;;;;;;187.70;26.43;;;;;;;;;;4974754;28;20220;-51
2023/12/30 00:36:54;;;;;;;247.83;35.47;;;;;;;;;;4982487;28;20706;-52
2023/12/30 00:39:20;;;;;;;307.97;46.07;;;;;;;;;;4975249;28;20197;-51
2023/12/30 00:41:46;;;;;;;232.53;32.97;;;;;;;;;;4982625;28;20257;-53
2023/12/30 00:44:12;;;;;;;189.73;27.47;;;;;;;;;;4987925;28;20217;-51
2023/12/30 00:46:38;;;;;;;288.87;41.23;;;;;;;;;;4973946;28;20595;-53
2023/12/30 00:49:04;;;;;;;260.70;38.17;;;;;;;;;;4989658;28;20608;-52
2023/12/30 00:51:30;;;;;;;192.93;27.20;;;;;;;;;;4977709;28;20244;-51
2023/12/30 00:53:56;;;;;;;217.73;33.87;;;;;;;;;;4984100;28;20217;-52
2023/12/30 00:56:47;;;;;;;119.80;15.93;;;;;;;;;;4985987;28;20293;-53
2023/12/30 00:59:12;;;;;;;236.33;33.03;;;;;;;;;;4979091;28;20213;-52
2023/12/30 01:01:50;;;;;;;119.97;16.27;;;;;;;;;;4990384;28;20586;-52
2023/12/30 01:04:16;;;;;;;206.17;28.60;;;;;;;;;;4973625;28;20217;-51
2023/12/30 01:06:42;;;;;;;240.50;35.23;;;;;;;;;;4987654;28;20754;-51
2023/12/30 01:12:12;;;;;;;183.50;25.77;;;;;;;;;;4984236;28;20208;-51
2023/12/30 01:15:09;;;;;;;124.67;17.03;;;;;;;;;;4993455;28;20225;-52
2023/12/30 01:17:35;;;;;;;218.60;30.30;;;;;;;;;;4980362;28;20224;-51
2023/12/30 01:20:01;;;;;;;210.07;29.43;;;;;;;;;;4978980;28;20252;-51
2023/12/30 01:22:27;;;;;;;144.87;19.83;;;;;;;;;;4993347;28;20230;-52
2023/12/30 01:24:53;;;;;;;177.00;24.80;;;;;;;;;;4978492;28;20221;-52
2023/12/30 01:27:19;;;;;;;202.10;27.53;;;;;;;;;;4979615;28;22173;-51
2023/12/30 01:29:45;;;;;;;192.93;26.80;;;;;;;;;;4981442;28;20588;-52
2023/12/30 01:32:11;;;;;;;205.57;28.53;;;;;;;;;;4978435;28;20580;-53
2023/12/30 01:37:40;;;;;;;246.37;34.37;;;;;;;;;;4980323;28;20235;-51
2023/12/30 01:43:23;;;;;;;203.37;28.67;;;;;;;;;;4976465;28;20324;-52
2023/12/30 01:48:52;;;;;;;239.40;34.50;;;;;;;;;;4970149;28;20267;-51
2023/12/30 01:51:18;;;;;;;232.73;31.77;;;;;;;;;;4979784;28;20182;-52
2023/12/30 01:53:45;;;;;;;211.90;28.80;;;;;;;;;;4984399;28;20192;-53
2023/12/30 01:56:11;;;;;;;197.53;26.67;;;;;;;;;;4976077;28;20253;-52
2023/12/30 01:58:37;;;;;;;207.37;29.33;;;;;;;;;;4981499;28;20252;-50
2023/12/30 02:01:03;;;;;;;146.80;19.73;;;;;;;;;;4988031;28;20221;-50
2023/12/30 02:03:29;;;;;;;143.93;19.57;;;;;;;;;;4989055;28;20651;-50
2023/12/30 02:09:00;;;;;;;150.03;20.57;;;;;;;;;;4989281;28;20668;-49
2023/12/30 02:11:26;;;;;;;165.13;22.53;;;;;;;;;;4986895;28;20247;-50
2023/12/30 02:13:53;;;;;;;153.40;20.50;;;;;;;;;;4986874;28;20252;-49
2023/12/30 02:16:19;;;;;;;170.17;22.93;;;;;;;;;;4990127;28;20197;-49
2023/12/30 02:18:45;;;;;;;143.00;19.30;;;;;;;;;;4987161;28;20552;-50
2023/12/30 02:24:20;;;;;;;121.37;16.23;;;;;;;;;;4990101;28;20628;-50
2023/12/30 02:26:46;;;;;;;117.00;16.37;;;;;;;;;;4988932;28;20276;-50
2023/12/30 02:29:27;;;;;;;116.13;15.57;;;;;;;;;;4988311;28;20228;-50
2023/12/30 02:32:21;;;;;;;134.87;18.10;;;;;;;;;;4990539;28;20177;-50
2023/12/30 02:37:51;;;;;;;161.70;22.20;;;;;;;;;;4987957;28;20608;-50
2023/12/30 02:40:23;;;;;;;120.67;15.93;;;;;;;;;;4988482;28;20217;-50
2023/12/30 02:42:49;;;;;;;162.13;22.07;;;;;;;;;;4986793;28;20205;-49
2023/12/30 02:45:15;;;;;;;148.00;20.17;;;;;;;;;;4991491;28;20193;-49
2023/12/30 02:47:41;;;;;;;154.43;21.10;;;;;;;;;;4990268;28;20307;-50
2023/12/30 02:50:07;;;;;;;166.57;22.77;;;;;;;;;;4993924;28;20352;-50
2023/12/30 02:52:33;;;;;;;148.37;20.37;;;;;;;;;;4991074;28;20308;-49
2023/12/30 02:55:00;;;;;;;176.63;24.10;;;;;;;;;;4992520;28;20291;-49
2023/12/30 02:57:27;;;;;;;139.90;18.93;;;;;;;;;;4990058;28;20245;-50
2023/12/30 02:59:56;;;;;;;117.63;15.77;;;;;;;;;;4994608;28;20213;-50
2023/12/30 03:05:32;;;;;;;133.03;17.57;;;;;;;;;;4992387;28;20224;-50
2023/12/30 03:11:03;;;;;;;150.77;20.97;;;;;;;;;;4990917;28;20283;-50
2023/12/30 03:16:33;;;;;;;150.80;20.40;;;;;;;;;;4992425;28;20650;-50
2023/12/30 03:19:14;;;;;;;123.60;16.43;;;;;;;;;;4992149;28;20665;-50
2023/12/30 03:21:40;;;;;;;125.37;16.97;;;;;;;;;;4991290;28;20220;-50
2023/12/30 03:24:28;;;;;;;135.87;18.47;;;;;;;;;;4991597;28;20674;-50
2023/12/30 03:26:54;;;;;;;179.37;24.40;;;;;;;;;;4989968;28;20209;-50
2023/12/30 03:29:38;;;;;;;130.37;17.93;;;;;;;;;;4994757;28;20204;-50
2023/12/30 03:38:43;;;;;;;137.20;18.57;;;;;;;;;;4993832;28;20667;-50
2023/12/30 03:44:13;;;;;;;151.87;20.73;;;;;;;;;;4993098;28;20188;-49
2023/12/30 03:47:07;;;;;;;168.73;23.03;;;;;;;;;;4991261;28;20217;-50
2023/12/30 03:58:43;;;;;;;164.53;22.93;;;;;;;;;;4992087;28;20596;-49
2023/12/30 04:07:30;;;;;;;152.63;20.60;;;;;;;;;;4990515;28;20469;-50
2023/12/30 04:09:56;;;;;;;128.87;18.00;;;;;;;;;;4987265;28;20324;-50
2023/12/30 04:12:23;;;;;;;147.77;19.93;;;;;;;;;;4989499;28;20182;-49
2023/12/30 04:14:49;;;;;;;128.50;17.67;;;;;;;;;;4988095;28;20236;-50
2023/12/30 04:17:16;;;;;;;147.17;20.03;;;;;;;;;;4986780;28;20653;-49
2023/12/30 04:19:42;;;;;;;167.57;22.87;;;;;;;;;;4987071;28;20616;-49
2023/12/30 04:22:08;;;;;;;155.30;21.33;;;;;;;;;;4985524;28;20296;-49
2023/12/30 04:24:34;;;;;;;184.60;25.33;;;;;;;;;;4970560;28;20526;-49
2023/12/30 04:27:00;;;;;;;142.87;19.80;;;;;;;;;;4989031;28;20178;-50
2023/12/30 04:29:28;;;;;;;140.63;20.57;;;;;;;;;;4987649;28;20763;-50
2023/12/30 04:31:55;;;;;;;151.33;21.27;;;;;;;;;;4988503;28;20275;-50
2023/12/30 04:34:21;;;;;;;161.70;22.13;;;;;;;;;;4986817;28;20214;-49
2023/12/30 04:36:47;;;;;;;146.57;20.27;;;;;;;;;;4985649;28;20602;-49
2023/12/30 04:39:13;;;;;;;160.73;21.67;;;;;;;;;;4988761;28;20201;-49
2023/12/30 04:41:39;;;;;;;169.07;22.97;;;;;;;;;;4986434;28;20309;-49
2023/12/30 04:44:05;;;;;;;148.77;20.97;;;;;;;;;;4986196;28;20221;-50
2023/12/30 04:46:31;;;;;;;168.50;23.30;;;;;;;;;;4988496;28;20218;-49
2023/12/30 04:49:01;;;;;;;166.57;23.13;;;;;;;;;;4986189;28;20296;-49
2023/12/30 04:51:27;;;;;;;144.07;19.30;;;;;;;;;;4987378;28;20158;-49
2023/12/30 04:53:54;;;;;;;148.00;20.13;;;;;;;;;;4988697;28;20178;-50
2023/12/30 04:56:19;;;;;;;168.70;22.57;;;;;;;;;;4987088;28;20652;-50
2023/12/30 04:58:46;;;;;;;172.13;23.23;;;;;;;;;;4985880;28;20241;-49
2023/12/30 05:01:12;;;;;;;166.80;22.60;;;;;;;;;;4987412;28;20241;-50
2023/12/30 05:03:42;;;;;;;169.63;23.10;;;;;;;;;;4987012;28;20220;-50
2023/12/30 05:06:08;;;;;;;139.70;18.93;;;;;;;;;;4988431;28;20206;-50
2023/12/30 05:08:34;;;;;;;148.37;19.83;;;;;;;;;;4984839;28;20229;-49
2023/12/30 05:11:06;;;;;;;158.43;21.07;;;;;;;;;;4985332;28;20217;-49
2023/12/30 05:13:32;;;;;;;129.23;17.60;;;;;;;;;;4986115;28;20640;-50
2023/12/30 05:15:58;;;;;;;155.03;20.93;;;;;;;;;;4987613;28;20224;-49
2023/12/30 05:18:25;;;;;;;164.80;22.37;;;;;;;;;;4987954;28;20181;-49
2023/12/30 05:20:52;;;;;;;159.70;21.63;;;;;;;;;;4981430;28;20249;-49
2023/12/30 05:23:19;;;;;;;171.40;23.17;;;;;;;;;;4985968;28;20217;-49
2023/12/30 05:25:45;;;;;;;170.63;22.97;;;;;;;;;;4985881;28;20228;-50
2023/12/30 05:28:11;;;;;;;152.00;20.63;;;;;;;;;;4987589;28;20221;-50
2023/12/30 05:30:41;;;;;;;149.53;20.50;;;;;;;;;;4986806;28;20229;-49
2023/12/30 05:33:07;;;;;;;134.70;18.37;;;;;;;;;;4988035;28;20172;-49
2023/12/30 05:35:35;;;;;;;153.90;20.67;;;;;;;;;;4987200;28;20261;-50
2023/12/30 05:38:02;;;;;;;156.47;21.07;;;;;;;;;;4985986;28;20225;-50
2023/12/30 05:40:28;;;;;;;177.40;23.83;;;;;;;;;;4986308;28;20246;-50
2023/12/30 05:42:54;;;;;;;149.40;20.40;;;;;;;;;;4985999;28;20585;-50
2023/12/30 05:45:21;;;;;;;145.17;19.37;;;;;;;;;;4987869;28;20738;-50
2023/12/30 05:47:47;;;;;;;151.53;20.57;;;;;;;;;;4986709;28;20688;-49
2023/12/30 05:50:13;;;;;;;137.57;18.33;;;;;;;;;;4987395;28;20572;-50
2023/12/30 05:52:39;;;;;;;161.87;21.40;;;;;;;;;;4987020;28;21044;-49
2023/12/30 05:55:06;;;;;;;140.10;18.57;;;;;;;;;;4985616;28;20221;-50
2023/12/30 05:57:33;;;;;;;167.93;22.70;;;;;;;;;;4985590;28;20204;-50
2023/12/30 05:59:59;;;;;;;140.90;19.33;;;;;;;;;;4987625;28;20237;-50
2023/12/30 06:02:25;;;;;;;156.90;21.17;;;;;;;;;;4986109;28;20703;-49
2023/12/30 06:04:52;;;;;;;144.40;19.33;;;;;;;;;;4985454;28;20228;-49
2023/12/30 06:07:18;;;;;;;190.60;25.20;;;;;;;;;;4986182;28;20303;-49
2023/12/30 06:09:45;;;;;;;120.37;16.60;;;;;;;;;;4986267;28;20260;-49
2023/12/30 06:12:11;;;;;;;178.93;23.93;;;;;;;;;;4987628;28;20178;-49
2023/12/30 06:14:39;;;;;;;169.67;22.77;;;;;;;;;;4985710;28;20237;-49
2023/12/30 06:17:06;;;;;;;165.30;22.27;;;;;;;;;;4985754;28;20221;-49
2023/12/30 06:19:34;;;;;;;164.73;22.53;;;;;;;;;;4988195;28;20221;-49
2023/12/30 06:22:00;;;;;;;153.40;20.87;;;;;;;;;;4989117;28;20287;-49
2023/12/30 06:24:27;;;;;;;144.40;19.83;;;;;;;;;;4990544;28;20485;-49
2023/12/30 06:26:54;;;;;;;143.70;20.27;;;;;;;;;;4991030;28;20192;-50
2023/12/30 06:29:21;;;;;;;166.47;22.53;;;;;;;;;;4990100;28;20606;-49
2023/12/30 06:31:47;;;;;;;160.73;21.93;;;;;;;;;;4989578;28;20225;-49
2023/12/30 06:34:14;;;;;;;181.50;24.37;;;;;;;;;;4989796;28;20287;-49
2023/12/30 06:36:41;;;;;;;177.23;24.03;;;;;;;;;;4987697;28;20205;-49
2023/12/30 06:39:08;;;;;;;151.93;20.73;;;;;;;;;;4991137;28;20197;-50
2023/12/30 06:41:35;;;;;;;147.67;20.20;;;;;;;;;;4989513;28;20214;-49
2023/12/30 06:44:01;;;;;;;173.13;25.50;;;;;;;;;;4989702;28;20628;-49
2023/12/30 06:46:27;;;;;;;155.50;23.13;;;;;;;;;;4988064;28;20256;-49
2023/12/30 06:48:54;;;;;;;181.20;27.80;;;;;;;;;;4989478;28;20232;-49
2023/12/30 06:51:20;;;;;;;189.67;30.07;;;;;;;;;;4990783;28;20479;-50
2023/12/30 06:53:46;;;;;;;166.93;26.37;;;;;;;;;;4989368;28;20229;-49
2023/12/30 06:56:12;;;;;;;154.50;23.83;;;;;;;;;;4988779;28;20221;-49
2023/12/30 06:58:41;;;;;;;138.53;20.90;;;;;;;;;;4989253;28;20480;-49
2023/12/30 07:01:07;;;;;;;161.17;24.57;;;;;;;;;;4989233;28;20296;-49
2023/12/30 07:03:34;;;;;;;155.73;23.80;;;;;;;;;;4988889;28;20541;-49
2023/12/30 07:06:00;;;;;;;165.37;25.23;;;;;;;;;;4991053;28;20537;-49
2023/12/30 07:08:26;;;;;;;190.37;30.17;;;;;;;;;;4988311;28;20242;-49
2023/12/30 07:10:52;;;;;;;178.27;27.60;;;;;;;;;;4989110;28;20229;-49
2023/12/30 07:13:18;;;;;;;;;;;;;;;;;;4989784;28;20217;-49
2023/12/30 07:15:45;;;;;;;;;;;;;;;;;;4989784;28;19990;-49
2023/12/30 07:18:11;;;;;;;;;;;;;;;;;;4990823;28;19910;-49
2023/12/30 07:20:37;;;;;;;;;;;;;;;;;;4990160;28;19916;-49
2023/12/30 07:23:05;;;;;;;;;;;;;;;;;;4989768;28;19949;-49
2023/12/30 07:25:31;;;;;;;;;;;;;;;;;;4989599;28;19910;-49
2023/12/30 07:27:57;;;;;;;;;;;;;;;;;;4989700;28;20380;-49
2023/12/30 07:30:23;;;;;;;;;;;;;;;;;;4989663;28;19913;-49
2023/12/30 07:32:49;;;;;;;;;;;;;;;;;;4989654;28;19932;-50
2023/12/30 07:35:15;;;;;;;;;;;;;;;;;;4989797;28;19918;-49
2023/12/30 07:37:41;;;;;;;;;;;;;;;;;;4988630;28;20312;-49
2023/12/30 07:40:07;;;;;;;;;;;;;;;;;;4990126;28;19910;-49
2023/12/30 07:42:33;;;;;;;;;;;;;;;;;;4989962;28;20316;-49
2023/12/30 07:44:59;;;;;;;;;;;;;;;;;;4990426;28;19902;-49
2023/12/30 07:47:28;;;;;;;;;;;;;;;;;;4989976;28;19914;-50
2023/12/30 07:49:54;;;;;;;;;;;;;;;;;;4990187;28;19932;-49
2023/12/30 07:52:20;;;;;;;;;;;;;;;;;;4979298;28;19921;-49
2023/12/30 07:54:46;;;;;;;;;;;;;;;;;;4989023;28;19917;-49
2023/12/30 07:57:13;;;;;;;;;;;;;;;;;;4990377;28;19972;-49
2023/12/30 07:59:38;;;;;;;;;;;;;;;;;;4979681;28;20368;-50
2023/12/30 08:02:04;;;;;;;;;;;;;;;;;;4968989;28;19913;-51
2023/12/30 08:04:30;;;;;;;;;;;;;;;;;;4969873;28;19925;-50
2023/12/30 08:06:56;;;;;;;;;;;;;;;;;;4975236;28;19956;-50
2023/12/30 08:09:22;;;;;;;;;;;;;;;;;;4966429;28;21599;-51
2023/12/30 08:11:48;;;;;;;;;;;;;;;;;;4962909;28;20391;-50
2023/12/30 08:14:15;;;;;;;;;;;;;;;;;;4973961;28;19926;-50
2023/12/30 08:16:41;;;;;;;;;;;;;;;;;;4969951;28;20075;-51
2023/12/30 08:19:07;;;;;;;;;;;;;;;;;;4968506;28;19953;-50
2023/12/30 08:21:33;;;;;;;;;;;;;;;;;;4964320;28;19910;-51
2023/12/30 08:24:01;;;;;;;;;;;;;;;;;;4967773;28;20732;-51
2023/12/30 08:26:27;;;;;;;;;;;;;;;;;;4968437;28;19945;-51
2023/12/30 08:28:54;;;;;;;;;;;;;;;;;;4974413;28;20016;-51
2023/12/30 08:31:32;;;;;;;;;;;;;;;;;;4984578;28;20300;-50
2023/12/30 08:33:58;;;;;;;;;;;;;;;;;;4973906;28;19914;-51
2023/12/30 08:36:26;;;;;;;;;;;;;;;;;;4972970;28;20369;-50
2023/12/30 08:38:51;;;;;;;;;;;;;;;;;;4965420;28;19953;-51
2023/12/30 08:41:23;;;;;;;;;;;;;;;;;;4960718;28;20009;-50
2023/12/30 08:43:52;;;;;;;;;;;;;;;;;;4968579;28;20180;-50
2023/12/30 08:46:17;;;;;;;;;;;;;;;;;;4962318;28;19922;-50
2023/12/30 08:48:43;;;;;;;;;;;;;;;;;;4971050;28;19920;-51
2023/12/30 08:51:09;;;;;;;;;;;;;;;;;;4972117;28;19921;-50
2023/12/30 08:53:35;;;;;;;;;;;;;;;;;;4970694;28;19944;-50
2023/12/30 08:56:01;;;;;;;;;;;;;;;;;;4966672;28;19922;-50
2023/12/30 08:58:27;;;;;;;;;;;;;;;;;;4968249;28;19921;-50
2023/12/30 09:00:53;;;;;;;;;;;;;;;;;;4966675;28;20413;-50
2023/12/30 09:03:19;;;;;;;;;;;;;;;;;;4969052;28;19914;-50
2023/12/30 09:05:45;;;;;;;;;;;;;;;;;;4972094;28;20327;-50
2023/12/30 09:08:11;;;;;;;;;;;;;;;;;;4965110;28;19922;-50
2023/12/30 09:10:37;;;;;;;;;;;;;;;;;;4966697;28;19976;-50
2023/12/30 09:13:03;;;;;;;;;;;;;;;;;;4974005;28;19914;-50
2023/12/30 09:15:29;;;;;;;;;;;;;;;;;;4957013;28;20565;-51
2023/12/30 09:17:58;;;;;;;;;;;;;;;;;;4955384;28;19926;-52
2023/12/30 09:20:24;;;;;;;;;;;;;;;;;;4966447;28;20335;-51
2023/12/30 09:22:50;;;;;;;;;;;;;;;;;;4970516;28;19917;-51
2023/12/30 09:25:16;;;;;;;;;;;;;;;;;;4982440;28;20442;-51
2023/12/30 09:27:42;;;;;;;;;;;;;;;;;;4976068;28;19957;-52
2023/12/30 09:30:08;;;;;;;;;;;;;;;;;;4966347;28;19980;-51
2023/12/30 09:32:34;;;;;;;;;;;;;;;;;;4976581;28;19926;-52
2023/12/30 09:35:02;;;;;;;;;;;;;;;;;;4978732;28;19979;-52
2023/12/30 09:37:28;;;;;;;;;;;;;;;;;;4976280;28;20150;-51
2023/12/30 09:39:54;;;;;;;;;;;;;;;;;;4974794;28;19913;-52
2023/12/30 09:42:20;;;;;;;;;;;;;;;;;;4973387;28;19963;-52
2023/12/30 09:44:46;;;;;;;;;;;;;;;;;;4976224;28;19987;-52
2023/12/30 09:47:12;;;;;;;;;;;;;;;;;;4978683;28;20273;-52
2023/12/30 09:49:37;;;;;;;;;;;;;;;;;;4973653;28;19921;-52
2023/12/30 09:52:05;;;;;;;;;;;;;;;;;;4984145;28;19922;-52
2023/12/30 09:54:30;;;;;;;;;;;;;;;;;;4980682;28;20310;-52
2023/12/30 09:56:59;;;;;;;;;;;;;;;;;;4973893;28;19917;-52
2023/12/30 09:59:26;;;;;;;;;;;;;;;;;;4980751;28;20268;-52
2023/12/30 10:01:52;;;;;;;;;;;;;;;;;;4975206;28;19925;-52
2023/12/30 10:04:18;;;;;;;;;;;;;;;;;;4975221;28;19972;-52
2023/12/30 10:06:44;;;;;;;;;;;;;;;;;;4974558;28;19910;-52
2023/12/30 10:09:10;;;;;;;;;;;;;;;;;;4962012;28;19917;-53
2023/12/30 10:11:35;;;;;;;;;;;;;;;;;;4973461;28;20296;-52
2023/12/30 10:14:02;;;;;;;;;;;;;;;;;;4972154;28;19921;-52
2023/12/30 10:16:28;;;;;;;;;;;;;;;;;;4968370;28;19917;-52
2023/12/30 10:18:55;;;;;;;;;;;;;;;;;;4971322;28;19921;-52
2023/12/30 10:21:21;;;;;;;;;;;;;;;;;;4972228;28;19936;-52
2023/12/30 10:23:51;;;;;;;;;;;;;;;;;;4978030;28;19925;-53
2023/12/30 10:26:17;;;;;;;;;;;;;;;;;;4976325;28;20672;-52
2023/12/30 10:28:43;;;;;;;;;;;;;;;;;;4973308;28;19924;-52
2023/12/30 10:31:11;;;;;;;;;;;;;;;;;;4976250;28;19996;-52
2023/12/30 10:33:37;;;;;;;;;;;;;;;;;;4970207;28;19914;-52
2023/12/30 10:36:03;;;;;;;;;;;;;;;;;;4973556;28;19915;-53
2023/12/30 10:38:29;;;;;;;;;;;;;;;;;;4974979;28;20471;-52
2023/12/30 10:40:55;;;;;;;;;;;;;;;;;;4970826;28;19992;-52
2023/12/30 10:43:20;;;;;;;;;;;;;;;;;;4971930;28;20256;-52
2023/12/30 10:45:46;;;;;;;;;;;;;;;;;;4977906;28;20066;-52
2023/12/30 10:48:12;;;;;;;;;;;;;;;;;;4971419;28;19920;-52
2023/12/30 10:50:38;;;;;;;;;;;;;;;;;;4972604;28;19922;-51
2023/12/30 10:53:04;;;;;;;;;;;;;;;;;;4973678;28;19913;-51
2023/12/30 10:55:30;;;;;;;;;;;;;;;;;;4967854;28;20012;-51
2023/12/30 10:57:56;;;;;;;;;;;;;;;;;;4972359;28;19956;-51
2023/12/30 11:00:22;;;;;;;;;;;;;;;;;;4972210;28;20004;-51
2023/12/30 11:02:48;;;;;;;;;;;;;;;;;;4988002;28;19959;-51
2023/12/30 11:05:15;;;;;;;;;;;;;;;;;;4977603;28;20313;-50
2023/12/30 11:07:40;;;;;;;;;;;;;;;;;;4980027;28;19929;-53
2023/12/30 11:10:06;;;;;;;;;;;;;;;;;;4982986;28;19914;-51
2023/12/30 11:12:32;;;;;;;;;;;;;;;;;;4972850;28;20598;-52
2023/12/30 11:14:58;;;;;;;;;;;;;;;;;;4979929;28;19909;-51
2023/12/30 11:17:24;;;;;;;;;;;;;;;;;;4974593;28;19925;-51
2023/12/30 11:19:50;;;;;;;;;;;;;;;;;;4978442;28;19917;-51
2023/12/30 11:22:16;;;;;;;;;;;;;;;;;;4975285;28;19937;-51
2023/12/30 11:24:42;;;;;;;;;;;;;;;;;;4972391;28;20391;-51
2023/12/30 11:27:08;;;;;;;;;;;;;;;;;;4978512;28;20057;-50
2023/12/30 11:29:34;;;;;;;;;;;;;;;;;;4980920;28;20377;-51
2023/12/30 11:32:00;;;;;;;;;;;;;;;;;;4977691;28;19921;-52
2023/12/30 11:34:26;;;;;;;;;;;;;;;;;;4972288;28;19913;-51
2023/12/30 11:36:52;;;;;;;;;;;;;;;;;;4975810;28;20325;-51
2023/12/30 11:39:18;;;;;;;;;;;;;;;;;;4972866;28;20041;-51
2023/12/30 11:41:44;;;;;;;;;;;;;;;;;;4975229;28;19917;-51
2023/12/30 11:44:10;;;;;;;;;;;;;;;;;;4992594;28;20250;-51
2023/12/30 11:46:36;;;;;;;;;;;;;;;;;;4977633;28;19921;-51
2023/12/30 11:49:02;;;;;;;;;;;;;;;;;;4974908;28;19914;-50
2023/12/30 11:51:28;;;;;;;;;;;;;;;;;;4978114;28;20086;-51
2023/12/30 11:53:53;;;;;;;;;;;;;;;;;;4974501;28;20381;-51
2023/12/30 11:56:19;;;;;;;;;;;;;;;;;;4967304;28;20355;-51
2023/12/30 11:58:45;;;;;;;;;;;;;;;;;;4978041;28;19976;-51
2023/12/30 12:01:11;;;;;;;;;;;;;;;;;;4976044;28;19922;-51
2023/12/30 12:03:37;;;;;;;;;;;;;;;;;;4984924;28;20224;-51
2023/12/30 12:06:03;;;;;;;;;;;;;;;;;;4980425;28;19933;-51
2023/12/30 12:08:29;;;;;;;;;;;;;;;;;;4963879;28;20016;-51
2023/12/30 12:10:55;;;;;;;;;;;;;;;;;;4968380;28;20031;-51
2023/12/30 12:13:20;;;;;;;;;;;;;;;;;;4972544;28;19921;-51
2023/12/30 12:15:46;;;;;;;;;;;;;;;;;;4969303;28;20389;-51
2023/12/30 12:18:12;;;;;;;;;;;;;;;;;;4969466;28;19921;-51
2023/12/30 12:20:38;;;;;;;;;;;;;;;;;;4976912;28;19975;-51
2023/12/30 12:23:04;;;;;;;;;;;;;;;;;;4977543;28;20138;-51
2023/12/30 12:25:30;;;;;;;;;;;;;;;;;;4967130;28;20403;-52
2023/12/30 12:27:56;;;;;;;;;;;;;;;;;;4982750;28;19924;-51
2023/12/30 12:30:22;;;;;;;;;;;;;;;;;;4975376;28;20376;-51
2023/12/30 12:32:48;;;;;;;;;;;;;;;;;;4978036;28;20186;-51
2023/12/30 12:35:14;;;;;;;;;;;;;;;;;;4979977;28;19953;-51
2023/12/30 12:37:40;;;;;;;;;;;;;;;;;;4969740;28;19964;-51
2023/12/30 12:40:12;;;;;;;;;;;;;;;;;;4969479;28;19925;-51
2023/12/30 12:42:38;;;;;;;;;;;;;;;;;;4978961;28;19917;-51
2023/12/30 12:45:03;;;;;;;;;;;;;;;;;;4978196;28;19914;-51
2023/12/30 12:47:30;;;;;;;;;;;;;;;;;;4979074;28;19913;-51
2023/12/30 12:49:56;;;;;;;;;;;;;;;;;;4974085;28;19972;-51
2023/12/30 12:52:22;;;;;;;;;;;;;;;;;;4973694;28;20347;-51
2023/12/30 12:54:48;;;;;;;;;;;;;;;;;;4971264;28;19921;-51
2023/12/30 12:57:13;;;;;;;;;;;;;;;;;;4978493;28;21083;-51
2023/12/30 12:59:39;;;;;;;;;;;;;;;;;;4978281;28;20320;-51
2023/12/30 13:02:08;;;;;;;;;;;;;;;;;;4974294;28;20016;-51
2023/12/30 13:04:34;;;;;;;;;;;;;;;;;;4985364;28;19921;-51
2023/12/30 13:07:00;;;;;;;;;;;;;;;;;;4976334;28;19918;-51
2023/12/30 13:09:39;;;;;;;;;;;;;;;;;;4968549;28;19909;-51
2023/12/30 13:12:05;;;;;;;;;;;;;;;;;;4978450;28;19936;-51
2023/12/30 13:14:31;;;;;;;;;;;;;;;;;;4975717;28;19922;-51
2023/12/30 13:16:57;;;;;;;;;;;;;;;;;;4976441;28;19918;-51
2023/12/30 13:19:23;;;;;;;;;;;;;;;;;;4967432;28;22290;-51
2023/12/30 13:21:49;;;;;;;;;;;;;;;;;;4970545;28;19986;-51
2023/12/30 13:24:15;;;;;;;;;;;;;;;;;;4970259;28;20571;-51
2023/12/30 13:26:40;;;;;;;;;;;;;;;;;;4979299;28;19922;-51
2023/12/30 13:29:06;;;;;;;;;;;;;;;;;;4975722;28;19948;-51
2023/12/30 13:31:34;;;;;;;;;;;;;;;;;;4973607;28;20427;-52
2023/12/30 13:34:00;;;;;;;;;;;;;;;;;;4973157;28;20199;-51
2023/12/30 13:36:28;;;;;;;;;;;;;;;;;;4983115;28;19913;-53
2023/12/30 13:39:03;;;;;;;;;;;;;;;;;;4969713;28;19950;-53
2023/12/30 13:41:30;;;;;;;;;;;;;;;;;;4978295;28;19976;-51
2023/12/30 13:43:58;;;;;;;;;;;;;;;;;;4980335;28;20036;-51
2023/12/30 13:46:41;;;;;;;;;;;;;;;;;;4975874;28;20404;-51
2023/12/30 13:51:35;;;;;;;;;;;;;;;;;;4972478;28;20300;-51
2023/12/30 13:54:02;;;;;;;;;;;;;;;;;;4979696;28;20401;-51
2023/12/30 13:56:28;;;;;;;;;;;;;;;;;;4984053;28;20109;-51
2023/12/30 13:58:57;;;;;;;;;;;;;;;;;;4983060;28;20009;-51
2023/12/30 14:01:23;;;;;;;;;;;;;;;;;;4986566;28;20987;-51
2023/12/30 14:03:51;;;;;;;;;;;;;;;;;;4989226;28;20407;-51
2023/12/30 14:06:20;;;;;;;;;;;;;;;;;;4983667;28;19923;-51
2023/12/30 14:08:46;;;;;;;;;;;;;;;;;;4984851;28;19926;-51
2023/12/30 14:11:31;;;;;;;;;;;;;;;;;;4983858;28;19920;-51
2023/12/30 14:13:58;;;;;;;;;;;;;;;;;;4986731;28;19920;-51
2023/12/30 14:16:24;;;;;;;;;;;;;;;;;;4979684;28;20035;-51
2023/12/30 14:18:50;;;;;;;;;;;;;;;;;;4975924;28;20004;-51
2023/12/30 14:21:16;;;;;;;;;;;;;;;;;;4979980;28;20005;-51
2023/12/30 14:23:42;;;;;;;;;;;;;;;;;;4980207;28;19987;-51
2023/12/30 14:26:08;;;;;;;;;;;;;;;;;;4973765;28;19913;-51
2023/12/30 14:28:34;;;;;;;;;;;;;;;;;;4972595;28;20261;-52
2023/12/30 14:31:00;;;;;;;;;;;;;;;;;;4973640;28;20243;-51
2023/12/30 14:36:11;;;;;;;;;;;;;;;;;;4980116;28;19920;-51
2023/12/30 14:38:37;;;;;;;;;;;;;;;;;;4992411;28;19917;-51
2023/12/30 14:41:02;;;;;;;;;;;;;;;;;;4995315;28;20471;-51
2023/12/30 14:43:28;;;;;;;;;;;;;;;;;;4994603;28;19910;-51
2023/12/30 14:45:54;;;;;;;;;;;;;;;;;;4998090;28;20428;-50
2023/12/30 14:48:20;;;;;;;;;;;;;;;;;;5000299;28;19969;-51
2023/12/30 14:50:46;;;;;;;;;;;;;;;;;;4990893;28;19988;-53
2023/12/30 14:53:12;;;;;;;;;;;;;;;;;;4998777;28;19968;-53
2023/12/30 14:55:38;;;;;;;;;;;;;;;;;;4989140;28;19914;-51
2023/12/30 14:58:04;;;;;;;;;;;;;;;;;;4987820;28;20581;-53
2023/12/30 15:00:30;;;;;;;;;;;;;;;;;;4990228;28;19909;-53
2023/12/30 15:02:56;;;;;;;;;;;;;;;;;;4992460;28;20488;-53
2023/12/30 15:05:22;;;;;;;;;;;;;;;;;;4990112;28;19918;-50
2023/12/30 15:07:50;;;;;;;;;;;;;;;;;;4990307;28;19983;-51
2023/12/30 15:10:16;;;;;;;;;;;;;;;;;;4990959;28;19913;-51
2023/12/30 15:12:46;;;;;;;;;;;;;;;;;;4990231;28;19925;-51
2023/12/30 15:15:11;;;;;;;;;;;;;;;;;;4979951;28;19937;-52
2023/12/30 15:17:37;;;;;;;;;;;;;;;;;;4984088;28;20226;-51
2023/12/30 15:20:06;;;;;;;;;;;;;;;;;;4981783;28;20620;-52
2023/12/30 15:22:32;;;;;;;;;;;;;;;;;;4973349;28;21811;-51
2023/12/30 15:24:58;;;;;;;;;;;;;;;;;;4983745;28;20305;-51
2023/12/30 15:27:24;;;;;;;;;;;;;;;;;;4982247;28;19994;-51
2023/12/30 15:29:50;;;;;;;;;;;;;;;;;;4969229;28;19922;-51
2023/12/30 15:32:16;;;;;;;;;;;;;;;;;;4974583;28;19920;-51
2023/12/30 15:34:42;;;;;;;;;;;;;;;;;;4975822;28;20062;-53
2023/12/30 15:37:08;;;;;;;;;;;;;;;;;;4993736;28;19967;-51
2023/12/30 15:39:34;;;;;;;;;;;;;;;;;;4972282;28;19918;-51
2023/12/30 15:42:00;;;;;;;;;;;;;;;;;;4981038;28;19913;-51
2023/12/30 15:44:26;;;;;;;;;;;;;;;;;;4967056;28;19929;-51
2023/12/30 15:46:52;;;;;;;;;;;;;;;;;;4967023;28;20295;-51
2023/12/30 15:49:18;;;;;;;;;;;;;;;;;;4969540;28;20009;-51
2023/12/30 15:51:44;;;;;;;;;;;;;;;;;;4966179;28;19945;-51
2023/12/30 15:54:10;;;;;;;;;;;;;;;;;;4972224;28;19965;-51
2023/12/30 15:56:36;;;;;;;;;;;;;;;;;;4976084;28;19918;-51
2023/12/30 15:59:02;;;;;;;;;;;;;;;;;;4973895;28;19922;-51
2023/12/30 16:01:28;;;;;;;;;;;;;;;;;;4970062;28;19921;-51
2023/12/30 16:03:54;;;;;;;;;;;;;;;;;;4967349;28;19988;-51
2023/12/30 16:06:20;;;;;;;;;;;;;;;;;;4976876;28;19975;-51
2023/12/30 16:08:45;;;;;;;;;;;;;;;;;;4973016;28;20277;-51
2023/12/30 16:11:11;;;;;;;;;;;;;;;;;;4970007;28;19925;-51
2023/12/30 16:13:38;;;;;;;;;;;;;;;;;;4963893;28;19921;-51
2023/12/30 16:16:05;;;;;;;;;;;;;;;;;;4962795;28;19976;-51
2023/12/30 16:18:31;;;;;;;;;;;;;;;;;;4968628;28;20362;-50
2023/12/30 16:20:57;;;;;;;;;;;;;;;;;;4964869;28;21864;-51
2023/12/30 16:23:24;;;;;;;;;;;;;;;;;;4963382;28;20497;-51
2023/12/30 16:25:50;;;;;;;;;;;;;;;;;;4966930;28;19941;-51
2023/12/30 16:28:16;;;;;;;;;;;;;;;;;;4966349;28;19926;-51
2023/12/30 16:30:42;;;;;;;;;;;;;;;;;;4964413;28;19925;-51
2023/12/30 16:33:08;;;;;;;;;;;;;;;;;;4967169;28;20543;-51
2023/12/30 16:35:34;;;;;;;;;;;;;;;;;;4969016;28;20548;-51
2023/12/30 16:38:00;;;;;;;;;;;;;;;;;;4970574;28;19997;-51